Time;durP1;ratioP1;P1;durP2;ratioP2;P2;SDS_P1;SDS_P2;PMS_P1;PMS_P2;Temp;Humidity;BMP_temperature;BMP_pressure;BME280_temperature;BME280_humidity;BME280_pressure;Samples;Min_cycle;Max_cycle;Signal;HPM_P1;HPM_P2
2021/05/13 00:01:43;;;;;;;16.00;11.20;;;;;;;15.18;71.06;98940.34;2084482;83;21124;-66
2021/05/13 00:04:45;;;;;;;14.40;10.60;;;;;;;15.12;71.42;98930.03;2078420;83;21192;-70
2021/05/13 00:07:46;;;;;;;15.53;10.75;;;;;;;15.07;71.63;98919.20;2083147;83;22234;-75
2021/05/13 00:10:48;;;;;;;11.30;10.13;;;;;;;15.00;71.79;98920.59;2082065;83;21126;-67
2021/05/13 00:13:49;;;;;;;15.83;11.25;;;;;;;14.97;72.07;98918.91;2085405;83;21591;-67
2021/05/13 00:16:53;;;;;;;13.85;11.12;;;;;;;14.90;72.25;98924.34;2080591;83;21113;-67
2021/05/13 00:19:55;;;;;;;17.02;12.30;;;;;;;14.91;72.41;98919.80;2085456;83;21192;-71
2021/05/13 00:22:58;;;;;;;15.68;12.30;;;;;;;14.89;72.67;98927.22;2084972;83;21134;-68
2021/05/13 00:25:59;;;;;;;14.05;11.53;;;;;;;14.85;73.04;98925.52;2081076;83;21144;-66
2021/05/13 00:29:11;;;;;;;15.05;13.00;;;;;;;14.80;73.17;98926.70;2086597;83;21104;-66
2021/05/13 00:32:12;;;;;;;16.82;13.15;;;;;;;14.75;73.13;98925.22;2081826;83;21175;-68
2021/05/13 00:35:17;;;;;;;16.87;13.22;;;;;;;14.73;73.31;98926.80;2085186;83;21638;-69
2021/05/13 00:38:18;;;;;;;16.02;13.22;;;;;;;14.73;73.39;98924.13;2080223;83;21132;-68
2021/05/13 00:41:20;;;;;;;16.37;13.28;;;;;;;14.74;73.50;98930.27;2083559;83;21457;-75
2021/05/13 00:44:21;;;;;;;23.75;15.58;;;;;;;14.72;73.52;98935.82;2086090;83;21025;-69
2021/05/13 00:47:25;;;;;;;17.87;15.58;;;;;;;14.71;73.57;98937.39;2078871;83;21660;-69
2021/05/13 00:50:26;;;;;;;19.02;14.10;;;;;;;14.65;73.71;98940.95;2086096;83;21126;-71
2021/05/13 00:53:28;;;;;;;17.05;13.58;;;;;;;14.61;73.90;98932.55;2082269;83;21149;-69
2021/05/13 00:56:30;;;;;;;15.28;13.68;;;;;;;14.60;74.00;98937.61;2083436;83;21145;-67
2021/05/13 00:59:34;;;;;;;15.35;12.93;;;;;;;14.69;74.14;98936.79;2084175;83;22343;-78
2021/05/13 01:02:35;;;;;;;20.23;14.60;;;;;;;14.73;74.71;98942.00;2081499;83;21186;-72
2021/05/13 01:05:38;;;;;;;20.15;15.88;;;;;;;14.74;74.81;98935.61;2084108;83;21585;-69
2021/05/13 01:08:43;;;;;;;22.20;16.35;;;;;;;14.72;74.77;98934.48;2083933;83;21140;-68
2021/05/13 01:11:45;;;;;;;18.67;15.60;;;;;;;14.74;74.82;98936.42;2089151;83;21097;-77
2021/05/13 01:14:48;;;;;;;19.70;16.52;;;;;;;14.78;74.77;98937.62;2083429;83;21483;-70
2021/05/13 01:18:04;;;;;;;22.07;18.12;;;;;;;14.83;74.91;98934.80;2085506;83;21130;-68
2021/05/13 01:21:00;;;;;;;;;;;;;;;14.86;74.95;98934.34;2087233;83;21112;-69
2021/05/13 01:24:01;;;;;;;26.90;20.40;;;;;;;14.84;75.16;98935.08;2081047;83;20251;-66
2021/05/13 01:27:03;;;;;;;24.55;19.10;;;;;;;14.83;75.30;98934.80;2083349;83;21107;-68
2021/05/13 01:30:06;;;;;;;24.55;18.98;;;;;;;14.83;75.30;98930.78;2080187;83;21641;-67
2021/05/13 01:33:09;;;;;;;23.30;18.30;;;;;;;14.87;75.36;98927.45;2086825;83;21057;-70
2021/05/13 01:36:10;;;;;;;26.12;19.25;;;;;;;14.92;75.35;98914.75;2078743;83;21128;-65
2021/05/13 01:39:12;;;;;;;24.37;19.23;;;;;;;14.95;75.52;98904.95;2087889;83;21065;-68
2021/05/13 01:42:14;;;;;;;30.85;21.33;;;;;;;14.92;75.60;98907.58;2078150;83;21611;-67
2021/05/13 01:45:15;;;;;;;24.15;20.32;;;;;;;14.91;75.67;98902.45;2080810;83;21205;-67
2021/05/13 01:48:17;;;;;;;25.82;19.67;;;;;;;14.90;75.63;98895.48;2084867;83;21663;-68
2021/05/13 01:51:19;;;;;;;28.98;21.20;;;;;;;14.88;75.92;98893.03;2061137;83;21064;-66
2021/05/13 01:54:20;;;;;;;30.20;22.65;;;;;;;14.87;75.94;98893.27;2087533;83;21131;-69
2021/05/13 01:57:21;;;;;;;23.80;20.55;;;;;;;14.88;75.75;98892.22;2083255;83;21078;-71
2021/05/13 02:00:24;;;;;;;26.20;19.90;;;;;;;14.91;75.68;98897.11;2084185;83;21073;-76
2021/05/13 02:03:26;;;;;;;27.30;21.17;;;;;;;14.91;75.63;98886.42;2085383;83;21232;-71
2021/05/13 02:06:28;;;;;;;29.52;20.00;;;;;;;14.91;75.60;98879.75;2085270;83;21180;-70
2021/05/13 02:09:29;;;;;;;27.13;19.70;;;;;;;14.91;75.86;98875.73;2083007;83;21127;-67
2021/05/13 02:12:30;;;;;;;24.37;20.82;;;;;;;14.89;76.19;98859.12;2062215;83;21227;-68
2021/05/13 02:15:32;;;;;;;30.10;22.82;;;;;;;14.86;76.02;98854.23;2082830;83;21105;-67
2021/05/13 02:18:33;;;;;;;28.50;23.50;;;;;;;14.82;76.20;98848.53;2082166;83;21183;-67
2021/05/13 02:21:35;;;;;;;26.27;20.65;;;;;;;14.77;76.43;98844.38;2087881;83;21190;-67
2021/05/13 02:24:36;;;;;;;28.80;21.35;;;;;;;14.72;76.95;98835.70;2082283;83;21068;-71
2021/05/13 02:27:39;;;;;;;28.10;21.02;;;;;;;14.69;76.58;98830.81;2086972;83;21183;-73
2021/05/13 02:30:41;;;;;;;27.27;19.75;;;;;;;14.70;76.95;98828.45;2088612;83;21702;-70
2021/05/13 02:33:42;;;;;;;28.67;19.98;;;;;;;14.67;77.34;98831.58;2101115;83;21119;-67
2021/05/13 02:36:43;;;;;;;26.00;19.45;;;;;;;14.65;77.63;98826.97;2145380;81;21101;-66
2021/05/13 02:39:46;;;;;;;27.10;19.20;;;;;;;14.65;77.49;98824.30;2140416;81;21538;-67
2021/05/13 02:42:48;;;;;;;25.60;19.85;;;;;;;14.67;77.99;98825.40;2140100;82;21696;-67
2021/05/13 02:45:49;;;;;;;22.65;18.75;;;;;;;14.66;77.85;98823.78;2141177;81;21045;-66
2021/05/13 02:48:50;;;;;;;28.80;21.70;;;;;;;14.65;77.66;98822.16;2125193;80;21080;-68
2021/05/13 02:51:52;;;;;;;33.35;22.85;;;;;;;14.65;77.13;98820.30;2154296;80;21036;-67
2021/05/13 02:54:53;;;;;;;27.82;23.38;;;;;;;14.68;76.93;98823.85;2147700;80;21026;-66
2021/05/13 02:57:55;;;;;;;26.42;21.10;;;;;;;14.66;76.86;98819.25;2147360;80;21062;-72
2021/05/13 03:01:10;;;;;;;30.55;20.27;;;;;;;14.60;76.87;98822.02;2147531;80;21944;-66
2021/05/13 03:04:09;;;;;;;29.70;21.30;;;;;;;14.54;77.08;98821.05;2147868;80;21084;-70
2021/05/13 03:07:12;;;;;;;27.82;21.45;;;;;;;14.50;77.11;98815.82;2152129;80;22361;-66
2021/05/13 03:10:24;;;;;;;30.57;20.68;;;;;;;14.41;77.58;98806.50;2150777;80;21106;-67
2021/05/13 03:13:23;;;;;;;29.12;21.30;;;;;;;14.35;77.43;98810.34;2146110;80;21797;-66
2021/05/13 03:16:24;;;;;;;33.33;23.10;;;;;;;14.35;77.26;98811.68;2145286;80;21123;-68
2021/05/13 03:19:32;;;;;;;30.27;23.20;;;;;;;14.39;77.32;98809.89;2154490;80;21112;-66
2021/05/13 03:22:28;;;;;;;35.40;23.45;;;;;;;14.39;77.68;98812.56;2145993;80;21076;-70
2021/05/13 03:25:32;;;;;;;35.68;26.20;;;;;;;14.37;77.44;98815.48;2153801;80;21060;-68
2021/05/13 03:28:33;;;;;;;33.23;24.35;;;;;;;14.41;77.49;98825.17;2148834;80;21064;-67
2021/05/13 03:31:34;;;;;;;36.63;25.12;;;;;;;14.43;77.37;98829.78;2153721;80;21145;-68
2021/05/13 03:34:36;;;;;;;35.45;23.92;;;;;;;14.45;77.24;98833.05;2153332;80;21141;-68
2021/05/13 03:37:38;;;;;;;33.00;23.62;;;;;;;14.52;77.18;98833.27;2149523;80;21089;-75
2021/05/13 03:40:41;;;;;;;34.80;23.70;;;;;;;14.62;77.07;98832.77;2146103;80;21145;-66
2021/05/13 03:43:42;;;;;;;38.73;24.27;;;;;;;14.74;76.90;98836.30;2147048;80;21100;-68
2021/05/13 03:46:43;;;;;;;35.10;23.35;;;;;;;14.83;76.78;98827.45;2155892;80;21104;-66
2021/05/13 03:49:45;;;;;;;41.15;27.25;;;;;;;14.86;76.69;98826.19;2146233;80;21113;-70
2021/05/13 03:52:48;;;;;;;38.10;27.62;;;;;;;14.88;76.63;98830.27;2146451;81;21655;-77
2021/05/13 03:55:51;;;;;;;39.00;24.98;;;;;;;14.90;76.64;98828.72;2147445;80;21053;-68
2021/05/13 03:59:03;;;;;;;33.25;24.35;;;;;;;14.83;76.61;98828.79;2152190;80;21104;-67
2021/05/13 04:05:11;;;;;;;38.80;23.43;;;;;;;14.81;76.53;98825.55;2149922;80;21066;-77
2021/05/13 04:08:14;;;;;;;39.55;24.75;;;;;;;14.81;76.57;98824.22;2149763;80;21127;-75
2021/05/13 04:11:16;;;;;;;36.05;23.75;;;;;;;14.83;76.56;98821.30;2146405;80;21334;-66
2021/05/13 04:14:18;;;;;;;41.58;25.12;;;;;;;14.83;76.54;98814.10;2150952;81;21615;-67
2021/05/13 04:17:19;;;;;;;39.70;26.35;;;;;;;14.82;76.56;98815.68;2148930;80;21097;-66
2021/05/13 04:20:21;;;;;;;45.40;27.13;;;;;;;14.80;76.50;98801.20;2152416;80;21968;-70
2021/05/13 04:23:23;;;;;;;40.78;25.68;;;;;;;14.77;76.61;98807.00;2148471;80;21643;-76
2021/05/13 04:26:24;;;;;;;42.73;26.93;;;;;;;14.76;76.69;98799.52;2145247;80;21100;-67
2021/05/13 04:29:27;;;;;;;44.70;24.40;;;;;;;14.75;76.70;98800.56;2149828;80;21093;-69
2021/05/13 04:32:28;;;;;;;41.30;25.77;;;;;;;14.77;76.90;98796.32;2146177;80;21118;-66
2021/05/13 04:35:30;;;;;;;39.58;26.00;;;;;;;14.79;76.85;98792.39;2150557;81;21117;-66
2021/05/13 04:38:32;;;;;;;43.25;26.60;;;;;;;14.83;76.83;98794.60;2114759;80;21107;-66
2021/05/13 04:41:34;;;;;;;43.50;28.23;;;;;;;14.84;76.67;98782.87;2151248;81;21093;-67
2021/05/13 04:44:36;;;;;;;45.35;27.45;;;;;;;14.88;76.76;98783.53;2145786;80;21114;-66
2021/05/13 04:50:42;;;;;;;49.05;28.15;;;;;;;14.84;76.70;98784.20;2150367;80;21135;-70
2021/05/13 04:53:46;;;;;;;41.77;26.37;;;;;;;14.89;76.79;98789.69;2148322;80;21056;-66
2021/05/13 04:56:47;;;;;;;42.27;26.35;;;;;;;14.92;76.59;98782.55;2151290;80;21707;-67
2021/05/13 04:59:49;;;;;;;38.25;25.40;;;;;;;14.92;76.56;98784.73;2145627;80;21622;-67
2021/05/13 05:02:50;;;;;;;40.52;26.62;;;;;;;14.92;76.49;98786.55;2144683;80;21133;-76
2021/05/13 05:05:51;;;;;;;41.25;25.27;;;;;;;14.89;76.50;98779.81;2150531;80;21354;-68
2021/05/13 05:08:53;;;;;;;43.65;26.93;;;;;;;14.89;76.50;98777.14;2150440;80;21160;-73
2021/05/13 05:11:54;;;;;;;43.35;27.00;;;;;;;14.92;76.60;98771.38;2151480;80;21143;-69
2021/05/13 05:14:57;;;;;;;47.75;26.42;;;;;;;14.91;76.44;98775.59;2145497;80;21105;-68
2021/05/13 05:17:59;;;;;;;39.67;25.50;;;;;;;14.91;76.75;98764.91;2150765;80;21110;-73
2021/05/13 05:21:00;;;;;;;39.18;25.32;;;;;;;14.89;76.93;98766.45;2147610;80;21166;-71
2021/05/13 05:24:03;;;;;;;35.85;23.38;;;;;;;14.80;77.05;98760.63;2151124;80;21040;-68
2021/05/13 05:27:05;;;;;;;36.90;23.87;;;;;;;14.83;76.87;98755.88;2151039;80;21004;-70
2021/05/13 05:30:08;;;;;;;35.65;22.70;;;;;;;14.83;76.72;98756.69;2151160;81;21107;-70
2021/05/13 05:33:10;;;;;;;39.27;25.35;;;;;;;14.82;76.98;98752.41;2146754;80;21081;-80
2021/05/13 05:36:12;;;;;;;41.40;24.18;;;;;;;14.78;76.82;98750.72;2144568;80;21083;-77
2021/05/13 05:39:13;;;;;;;40.98;26.75;;;;;;;14.78;76.88;98753.39;2150728;80;22256;-72
2021/05/13 05:42:15;;;;;;;37.23;23.57;;;;;;;14.77;77.00;98750.93;2146314;80;21597;-70
2021/05/13 05:45:17;;;;;;;36.88;24.40;;;;;;;14.77;77.16;98745.59;2153996;80;21056;-71
2021/05/13 05:48:19;;;;;;;40.98;24.70;;;;;;;14.72;77.64;98744.92;2149520;80;21655;-80
2021/05/13 05:51:20;;;;;;;36.68;24.15;;;;;;;14.67;77.36;98739.97;2151782;80;21618;-69
2021/05/13 05:54:21;;;;;;;39.08;24.35;;;;;;;14.67;77.41;98743.48;2124066;82;21088;-71
2021/05/13 05:57:23;;;;;;;36.15;23.32;;;;;;;14.70;77.49;98743.02;2146820;80;21095;-74
2021/05/13 06:00:25;;;;;;;35.73;23.52;;;;;;;14.68;77.55;98742.43;2150100;80;21080;-73
2021/05/13 06:03:27;;;;;;;36.95;23.40;;;;;;;14.66;77.78;98743.17;2145726;80;21119;-69
2021/05/13 06:06:28;;;;;;;39.90;23.98;;;;;;;14.65;77.89;98748.22;2151972;80;21072;-70
2021/05/13 06:09:30;;;;;;;40.28;25.37;;;;;;;14.65;77.94;98746.89;2147411;80;21622;-74
2021/05/13 06:12:31;;;;;;;38.80;24.75;;;;;;;14.68;78.13;98745.63;2151538;80;21065;-68
2021/05/13 06:15:33;;;;;;;40.60;27.20;;;;;;;14.71;78.17;98744.64;2146855;80;21132;-68
2021/05/13 06:18:50;;;;;;;40.70;27.70;;;;;;;14.73;78.30;98743.91;2151370;80;21070;-68
2021/05/13 06:21:51;;;;;;;36.63;25.08;;;;;;;14.75;78.27;98733.82;2151733;80;21085;-71
2021/05/13 06:24:53;;;;;;;38.23;24.95;;;;;;;14.77;78.64;98742.92;2145892;80;21543;-69
2021/05/13 06:27:57;;;;;;;42.83;24.85;;;;;;;14.75;78.83;98736.98;2147586;80;21080;-69
2021/05/13 06:30:58;;;;;;;38.23;26.15;;;;;;;14.72;78.66;98743.59;2148599;80;21091;-74
2021/05/13 06:33:59;;;;;;;38.83;23.38;;;;;;;14.70;78.72;98741.69;2150392;82;21085;-68
2021/05/13 06:37:03;;;;;;;37.53;26.73;;;;;;;14.69;79.13;98733.89;2151070;80;21092;-68
2021/05/13 06:40:07;;;;;;;40.35;24.77;;;;;;;14.65;79.16;98742.89;2147356;80;21619;-70
2021/05/13 06:43:09;;;;;;;34.95;24.40;;;;;;;14.66;79.53;98744.50;2152059;80;21061;-69
2021/05/13 06:46:11;;;;;;;40.63;24.05;;;;;;;14.70;79.38;98744.89;2151178;80;21128;-68
2021/05/13 06:49:12;;;;;;;36.20;24.00;;;;;;;14.70;79.42;98735.02;2148288;80;21096;-73
2021/05/13 06:52:14;;;;;;;37.98;23.30;;;;;;;14.72;79.51;98736.91;2147782;80;21088;-69
2021/05/13 06:55:17;;;;;;;40.78;24.07;;;;;;;14.78;79.79;98733.36;2144644;80;21120;-68
2021/05/13 06:58:23;;;;;;;36.05;24.27;;;;;;;14.83;79.71;98731.85;2126716;80;21119;-69
2021/05/13 07:01:26;;;;;;;37.65;24.02;;;;;;;14.91;79.48;98728.33;2148688;80;21621;-72
2021/05/13 07:04:27;;;;;;;36.58;23.77;;;;;;;15.00;79.61;98728.28;2152887;81;21568;-69
2021/05/13 07:07:29;;;;;;;36.45;24.20;;;;;;;15.03;79.47;98715.00;2142069;80;21882;-72
2021/05/13 07:10:32;;;;;;;39.63;23.80;;;;;;;15.01;79.17;98718.44;2149846;82;21570;-70
2021/05/13 07:13:34;;;;;;;42.70;23.75;;;;;;;15.00;79.22;98722.14;2126564;80;21092;-75
2021/05/13 07:16:35;;;;;;;35.85;23.25;;;;;;;15.02;79.24;98718.72;2145954;80;21049;-69
2021/05/13 07:19:36;;;;;;;34.90;21.65;;;;;;;15.06;79.02;98716.39;2147829;80;21045;-70
2021/05/13 07:22:38;;;;;;;31.27;21.77;;;;;;;15.06;78.92;98720.41;2151898;80;21048;-68
2021/05/13 07:25:40;;;;;;;33.55;21.15;;;;;;;15.06;79.27;98719.87;2157462;80;21621;-71
2021/05/13 07:28:44;;;;;;;27.50;19.45;;;;;;;15.09;78.96;98719.45;2123408;80;21883;-71
2021/05/13 07:31:46;;;;;;;26.20;18.65;;;;;;;15.14;78.95;98718.20;2149550;80;21068;-69
2021/05/13 07:34:47;;;;;;;28.10;17.32;;;;;;;15.11;78.69;98713.86;2148456;80;21125;-68
2021/05/13 07:37:49;;;;;;;26.17;19.62;;;;;;;15.16;78.76;98712.65;2147770;80;21043;-68
2021/05/13 07:40:51;;;;;;;28.87;18.27;;;;;;;15.22;78.76;98708.52;2149002;80;21057;-71
2021/05/13 07:43:53;;;;;;;26.55;15.88;;;;;;;15.25;78.44;98712.06;2143865;80;21080;-69
2021/05/13 07:46:57;;;;;;;23.55;15.78;;;;;;;15.30;78.27;98718.06;2151436;80;21061;-71
2021/05/13 07:49:59;;;;;;;18.98;14.03;;;;;;;15.32;78.24;98711.16;2146362;80;21074;-69
2021/05/13 07:53:00;;;;;;;19.85;13.43;;;;;;;15.34;78.02;98716.54;2151114;80;21116;-70
2021/05/13 07:56:03;;;;;;;19.10;14.43;;;;;;;15.41;77.99;98712.44;2143208;80;21084;-74
2021/05/13 07:59:05;;;;;;;21.23;15.55;;;;;;;15.41;77.66;98711.10;2155761;80;22333;-72
2021/05/13 08:02:06;;;;;;;24.18;17.02;;;;;;;15.42;77.59;98714.05;2151411;80;21058;-68
2021/05/13 08:05:09;;;;;;;22.30;15.45;;;;;;;15.41;77.54;98712.44;2148677;80;21068;-67
2021/05/13 08:08:11;;;;;;;23.10;16.05;;;;;;;15.40;77.33;98720.14;2156076;80;21466;-68
2021/05/13 08:11:12;;;;;;;23.47;16.15;;;;;;;15.43;77.43;98715.17;2147409;80;21433;-70
2021/05/13 08:14:14;;;;;;;22.02;15.68;;;;;;;15.49;77.33;98715.30;2150119;81;21583;-68
2021/05/13 08:17:15;;;;;;;23.70;15.95;;;;;;;15.54;77.29;98712.21;2145755;80;21097;-67
2021/05/13 08:20:17;;;;;;;24.40;16.50;;;;;;;15.55;77.27;98712.49;2154054;81;21040;-71
2021/05/13 08:23:19;;;;;;;27.05;18.73;;;;;;;15.61;77.00;98714.75;2148248;80;21116;-69
2021/05/13 08:26:20;;;;;;;26.20;18.48;;;;;;;15.60;76.64;98705.92;2148154;80;21591;-70
2021/05/13 08:29:21;;;;;;;23.10;18.50;;;;;;;15.62;76.75;98715.84;2151603;80;21088;-68
2021/05/13 08:32:24;;;;;;;22.50;17.23;;;;;;;15.65;76.62;98714.06;2149137;80;20989;-69
2021/05/13 08:35:25;;;;;;;27.55;19.42;;;;;;;15.72;76.59;98714.49;2148046;80;21079;-69
2021/05/13 08:38:26;;;;;;;27.40;17.95;;;;;;;15.78;76.72;98710.88;2147881;80;21088;-69
2021/05/13 08:41:28;;;;;;;25.82;18.52;;;;;;;15.77;76.17;98713.24;2152838;82;21638;-69
2021/05/13 08:44:30;;;;;;;28.65;19.37;;;;;;;15.73;76.27;98725.47;2143773;80;21715;-69
2021/05/13 08:47:32;;;;;;;31.35;21.40;;;;;;;15.75;76.16;98717.50;2150217;80;21036;-71
2021/05/13 08:50:33;;;;;;;31.30;21.45;;;;;;;15.83;76.17;98719.02;2146109;80;21052;-69
2021/05/13 08:53:54;;;;;;;33.25;20.23;;;;;;;15.96;75.81;98713.39;2140574;81;21386;-67
2021/05/13 08:56:55;;;;;;;29.52;20.82;;;;;;;16.19;76.11;98717.05;2136008;81;22277;-69
2021/05/13 08:59:58;;;;;;;31.25;21.05;;;;;;;16.52;75.57;98715.02;2138563;81;21040;-68
2021/05/13 09:02:59;;;;;;;32.58;22.50;;;;;;;16.76;74.79;98714.41;2138662;81;21751;-68
2021/05/13 09:06:01;;;;;;;31.23;21.75;;;;;;;17.00;73.82;98718.58;2140868;81;21057;-70
2021/05/13 09:09:13;;;;;;;32.78;24.35;;;;;;;17.14;73.64;98712.91;2139032;81;21073;-69
2021/05/13 09:12:19;;;;;;;33.92;23.10;;;;;;;17.37;73.12;98708.73;2135824;81;21072;-71
2021/05/13 09:15:27;;;;;;;32.53;21.17;;;;;;;17.46;73.16;98708.60;2136422;81;21107;-73
2021/05/13 09:18:33;;;;;;;33.05;23.62;;;;;;;17.55;72.82;98706.84;2143341;81;21570;-69
2021/05/13 09:21:42;;;;;;;34.35;24.02;;;;;;;17.47;72.53;98713.42;2143209;81;21064;-68
2021/05/13 09:25:00;;;;;;;33.75;25.10;;;;;;;17.44;72.06;98704.00;2140552;81;21105;-69
2021/05/13 09:28:02;;;;;;;37.70;25.65;;;;;;;17.72;72.29;98708.96;2145115;81;21092;-68
2021/05/13 09:31:04;;;;;;;33.18;24.15;;;;;;;17.86;71.23;98707.57;2143702;81;22521;-69
2021/05/13 09:34:08;;;;;;;34.55;24.15;;;;;;;17.72;70.86;98706.28;2141961;81;21056;-73
2021/05/13 09:37:10;;;;;;;34.30;24.37;;;;;;;17.63;70.66;98702.41;2133468;81;21110;-69
2021/05/13 09:40:13;;;;;;;40.35;25.37;;;;;;;17.59;70.28;98698.58;2124662;82;21073;-73
2021/05/13 09:43:31;;;;;;;33.05;25.10;;;;;;;17.50;70.14;98702.20;2138156;81;21085;-70
2021/05/13 09:46:36;;;;;;;32.40;23.65;;;;;;;17.37;70.57;98695.34;2140396;81;21157;-69
2021/05/13 09:49:57;;;;;;;32.83;25.05;;;;;;;17.39;70.65;98691.86;2137753;81;21003;-68
2021/05/13 09:53:00;;;;;;;35.35;23.62;;;;;;;17.23;70.22;98685.48;2147450;81;21080;-68
2021/05/13 09:56:07;;;;;;;29.85;22.55;;;;;;;17.25;71.13;98692.72;2153711;81;21098;-71
2021/05/13 09:59:38;;;;;;;37.33;24.65;;;;;;;17.47;70.79;98683.40;2139511;81;21051;-68
2021/05/13 10:02:36;;;;;;;36.00;23.67;;;;;;;17.50;70.19;98686.12;2149746;81;21344;-70
2021/05/13 10:05:50;;;;;;;35.55;26.97;;;;;;;17.35;69.90;98681.36;2148791;81;21077;-71
2021/05/13 10:08:51;;;;;;;29.00;22.35;;;;;;;17.22;70.05;98682.49;2142720;81;21118;-68
2021/05/13 10:11:56;;;;;;;31.23;23.32;;;;;;;17.25;70.45;98685.22;2147978;81;21065;-68
2021/05/13 10:14:58;;;;;;;30.12;23.22;;;;;;;17.39;70.80;98682.47;2145691;81;21624;-69
2021/05/13 10:18:05;;;;;;;30.72;23.15;;;;;;;17.41;69.97;98681.70;2150892;81;21147;-68
2021/05/13 10:21:23;;;;;;;34.55;24.32;;;;;;;17.37;69.84;98676.57;2149919;81;21554;-73
2021/05/13 10:24:24;;;;;;;36.55;25.40;;;;;;;17.33;69.93;98674.61;2151980;81;21772;-68
2021/05/13 10:27:30;;;;;;;32.42;24.40;;;;;;;17.42;70.28;98676.62;2116514;81;21364;-73
2021/05/13 10:30:37;;;;;;;35.65;23.95;;;;;;;17.50;69.77;98677.27;2146314;81;21526;-68
2021/05/13 10:33:50;;;;;;;31.65;22.50;;;;;;;17.44;69.93;98675.05;2150284;81;21121;-69
2021/05/13 10:37:03;;;;;;;35.38;25.72;;;;;;;17.38;69.69;98676.03;2142578;81;21071;-69
2021/05/13 10:40:20;;;;;;;36.17;25.40;;;;;;;17.22;69.64;98676.33;2122397;81;22339;-72
2021/05/13 10:43:24;;;;;;;39.83;27.37;;;;;;;17.26;70.10;98669.44;2150717;81;21069;-70
2021/05/13 10:46:28;;;;;;;37.88;28.20;;;;;;;17.24;69.90;98671.54;2150106;81;21667;-71
2021/05/13 10:49:29;;;;;;;38.65;26.45;;;;;;;17.22;69.88;98668.28;2148254;81;21080;-72
2021/05/13 10:52:39;;;;;;;40.38;26.12;;;;;;;17.18;69.66;98658.59;2150017;80;21085;-72
2021/05/13 10:55:41;;;;;;;35.68;25.60;;;;;;;17.21;69.82;98665.33;2159998;80;21114;-74
2021/05/13 10:59:11;;;;;;;37.53;27.77;;;;;;;17.28;69.90;98666.49;2154511;80;21100;-71
2021/05/13 11:02:45;;;;;;;36.48;26.70;;;;;;;17.36;69.69;98662.05;2158037;80;22275;-70
2021/05/13 11:05:49;;;;;;;38.75;30.52;;;;;;;17.55;69.68;98659.91;2157401;80;21065;-69
2021/05/13 11:08:51;;;;;;;35.50;25.90;;;;;;;17.69;69.22;98654.47;2154839;80;21120;-71
2021/05/13 11:12:13;;;;;;;39.50;25.85;;;;;;;17.78;69.41;98662.89;2157184;80;21615;-69
2021/05/13 11:15:19;;;;;;;37.28;24.67;;;;;;;17.77;68.58;98661.28;2155423;80;21119;-68
2021/05/13 11:18:26;;;;;;;35.05;25.48;;;;;;;17.84;68.99;98652.00;2155936;80;22260;-69
2021/05/13 11:21:37;;;;;;;35.70;26.87;;;;;;;18.05;68.86;98646.89;2158580;80;22168;-73
2021/05/13 11:24:41;;;;;;;35.92;26.75;;;;;;;18.22;68.60;98650.84;2131363;80;21891;-73
2021/05/13 11:27:45;;;;;;;36.33;24.95;;;;;;;18.44;68.32;98653.45;2158382;80;21079;-71
2021/05/13 11:30:47;;;;;;;34.53;25.25;;;;;;;18.46;67.52;98655.36;2150406;80;21072;-69
2021/05/13 11:33:58;;;;;;;34.50;24.98;;;;;;;18.48;67.59;98647.88;2155696;82;21037;-69
2021/05/13 11:37:00;;;;;;;35.78;25.82;;;;;;;18.54;66.79;98654.38;2151644;80;21044;-72
2021/05/13 11:40:23;;;;;;;34.13;24.75;;;;;;;18.47;66.32;98634.15;2162294;80;21064;-73
2021/05/13 11:43:34;;;;;;;36.10;25.88;;;;;;;18.57;66.49;98640.43;2157992;80;21055;-71
2021/05/13 11:46:37;;;;;;;35.55;25.52;;;;;;;18.73;66.16;98645.42;2159878;80;21016;-71
2021/05/13 11:49:38;;;;;;;35.55;25.80;;;;;;;18.76;65.77;98630.16;2159752;82;21095;-69
2021/05/13 11:53:05;;;;;;;32.25;25.50;;;;;;;19.03;65.82;98631.96;2153803;80;21061;-69
2021/05/13 11:56:08;;;;;;;35.95;26.00;;;;;;;19.09;65.64;98630.95;2133954;81;21081;-68
2021/05/13 11:59:12;;;;;;;33.15;24.80;;;;;;;19.20;65.01;98633.98;2141331;81;21097;-71
2021/05/13 12:02:15;;;;;;;32.70;25.57;;;;;;;19.19;64.87;98624.82;2139465;81;21119;-72
2021/05/13 12:05:16;;;;;;;31.55;24.87;;;;;;;19.34;64.71;98624.09;2144593;81;21104;-70
2021/05/13 12:08:22;;;;;;;35.65;25.10;;;;;;;19.52;63.96;98613.45;2135873;81;21022;-69
2021/05/13 12:11:28;;;;;;;31.80;25.32;;;;;;;19.50;64.06;98612.36;2140856;81;21073;-70
2021/05/13 12:14:33;;;;;;;33.88;24.70;;;;;;;19.46;63.84;98608.59;2136488;81;22169;-70
2021/05/13 12:17:35;;;;;;;31.85;25.52;;;;;;;19.61;63.70;98608.64;2135547;81;21085;-71
2021/05/13 12:20:42;;;;;;;30.30;23.90;;;;;;;19.77;63.84;98609.56;2136670;81;21608;-70
2021/05/13 12:23:46;;;;;;;35.17;23.83;;;;;;;19.79;62.86;98605.24;2140883;81;21119;-71
2021/05/13 12:26:49;;;;;;;32.60;24.52;;;;;;;19.83;63.21;98606.35;2142468;81;21067;-69
2021/05/13 12:29:53;;;;;;;26.80;21.35;;;;;;;19.82;62.74;98596.64;2116590;81;21583;-70
2021/05/13 12:32:57;;;;;;;29.60;22.65;;;;;;;19.88;63.13;98600.98;2144145;81;21157;-70
2021/05/13 12:35:58;;;;;;;27.93;23.15;;;;;;;20.05;62.96;98604.27;2142701;81;21114;-72
2021/05/13 12:39:00;;;;;;;28.40;22.65;;;;;;;20.02;61.94;98602.11;2137325;81;21635;-70
2021/05/13 12:42:25;;;;;;;30.32;22.95;;;;;;;19.98;62.03;98594.81;2137478;81;21105;-70
2021/05/13 12:45:27;;;;;;;29.42;23.55;;;;;;;20.08;61.66;98599.70;2136940;81;21049;-73
2021/05/13 12:48:31;;;;;;;28.70;22.10;;;;;;;20.17;61.48;98599.17;2135648;81;21098;-70
2021/05/13 12:51:32;;;;;;;27.82;23.02;;;;;;;20.23;61.36;98602.95;2137611;81;21102;-71
2021/05/13 12:54:42;;;;;;;32.17;23.42;;;;;;;20.28;60.98;98602.16;2151498;81;22118;-70
2021/05/13 12:57:46;;;;;;;27.77;22.47;;;;;;;20.30;60.96;98602.17;2151437;81;21621;-72
2021/05/13 13:00:59;;;;;;;27.48;22.27;;;;;;;20.32;60.68;98595.16;2147450;81;21632;-69
2021/05/13 13:04:01;;;;;;;27.30;21.05;;;;;;;20.36;61.24;98593.55;2149047;81;21079;-70
2021/05/13 13:07:03;;;;;;;28.52;21.40;;;;;;;20.35;60.65;98587.88;2146810;81;22554;-70
2021/05/13 13:10:26;;;;;;;25.10;21.93;;;;;;;20.42;60.89;98589.78;2152995;81;21085;-70
2021/05/13 13:13:49;;;;;;;29.27;21.87;;;;;;;20.52;60.30;98591.66;2150260;81;21113;-70
2021/05/13 13:16:47;;;;;;;27.67;21.10;;;;;;;20.44;60.41;98588.98;2146542;81;21049;-69
2021/05/13 13:20:09;;;;;;;29.40;22.07;;;;;;;20.47;60.20;98592.49;2150556;81;21085;-70
2021/05/13 13:23:31;;;;;;;29.05;21.45;;;;;;;20.40;59.90;98600.02;2149810;81;21083;-69
2021/05/13 13:26:34;;;;;;;29.27;22.30;;;;;;;20.29;59.71;98599.19;2150463;81;21081;-73
2021/05/13 13:29:37;;;;;;;28.42;23.02;;;;;;;20.18;60.03;98602.13;2147862;81;21084;-70
2021/05/13 13:32:45;;;;;;;29.75;21.48;;;;;;;20.20;60.32;98602.69;2146415;81;21088;-69
2021/05/13 13:35:43;;;;;;;25.20;20.62;;;;;;;20.30;60.04;98599.47;2148086;81;21279;-71
2021/05/13 13:38:44;;;;;;;26.93;20.70;;;;;;;20.20;59.50;98605.38;2116859;81;21114;-69
2021/05/13 13:41:45;;;;;;;24.30;19.70;;;;;;;20.09;59.44;98590.53;2127688;82;21136;-69
2021/05/13 13:44:47;;;;;;;28.32;19.70;;;;;;;20.05;60.28;98593.50;2120048;81;21569;-71
2021/05/13 13:47:48;;;;;;;32.95;22.60;;;;;;;20.01;59.95;98585.66;2148337;81;21007;-69
2021/05/13 13:50:52;;;;;;;26.50;18.85;;;;;;;19.96;60.34;98593.72;2123933;81;21942;-69
2021/05/13 13:53:54;;;;;;;26.95;19.23;;;;;;;20.00;60.73;98589.44;2147810;81;21068;-72
2021/05/13 13:56:55;;;;;;;24.82;19.62;;;;;;;20.05;60.68;98590.00;2139270;81;21117;-69
2021/05/13 13:59:58;;;;;;;27.87;18.00;;;;;;;20.09;60.33;98588.38;2132996;81;21155;-75
2021/05/13 14:02:59;;;;;;;26.62;18.40;;;;;;;20.03;60.56;98586.76;2142881;81;21100;-69
2021/05/13 14:06:01;;;;;;;19.95;16.93;;;;;;;19.90;60.61;98587.52;2139134;81;21058;-71
2021/05/13 14:09:05;;;;;;;24.07;16.42;;;;;;;19.79;60.83;98593.13;2143344;81;21456;-71
2021/05/13 14:12:07;;;;;;;21.48;17.23;;;;;;;19.73;61.00;98581.55;2140284;81;21610;-74